Time;durP1;ratioP1;P1;durP2;ratioP2;P2;SDS_P1;SDS_P2;PMS_P1;PMS_P2;Temp;Humidity;BMP_temperature;BMP_pressure;BME280_temperature;BME280_humidity;BME280_pressure;Samples;Min_cycle;Max_cycle;Signal;HPM_P1;HPM_P2
2022/08/10 00:02:59;;;;;;;5.50;3.10;;;;;;;18.56;76.71;101575.36;107498;1248;64550;-70
2022/08/10 00:05:28;;;;;;;4.40;3.60;;;;;;;18.53;76.95;101573.35;107491;1247;70187;-69
2022/08/10 00:08:17;;;;;;;3.40;3.10;;;;;;;18.53;77.02;101573.86;107319;1246;71705;-69
2022/08/10 00:10:56;;;;;;;5.00;3.10;;;;;;;18.47;77.39;101572.29;107312;1246;63000;-70
2022/08/10 00:13:27;;;;;;;5.30;3.40;;;;;;;18.52;76.98;101569.02;107292;1248;63279;-70
2022/08/10 00:15:56;;;;;;;5.20;3.00;;;;;;;18.48;77.22;101565.55;107449;1248;61736;-71
2022/08/10 00:18:25;;;;;;;4.40;3.20;;;;;;;18.47;77.38;101563.55;107382;1246;74656;-71
2022/08/10 00:21:06;;;;;;;6.80;3.50;;;;;;;18.48;76.89;101564.60;107427;1248;71287;-70
2022/08/10 00:23:37;;;;;;;6.30;3.10;;;;;;;18.45;76.49;101564.91;107500;1248;69668;-69
2022/08/10 00:26:06;;;;;;;3.50;2.70;;;;;;;18.45;76.25;101566.71;107392;1247;73714;-68
2022/08/10 00:28:35;;;;;;;3.80;2.70;;;;;;;18.42;76.29;101564.48;107476;1247;59004;-70
2022/08/10 00:31:04;;;;;;;4.20;2.90;;;;;;;18.38;76.47;101566.46;107452;1246;59064;-69
2022/08/10 00:33:33;;;;;;;3.70;2.80;;;;;;;18.34;76.52;101567.39;107400;1247;62680;-69
2022/08/10 00:36:02;;;;;;;4.50;2.90;;;;;;;18.34;76.31;101567.71;107312;1247;72363;-70
2022/08/10 00:38:33;;;;;;;3.30;2.90;;;;;;;18.32;76.35;101564.59;107351;1247;59881;-69
2022/08/10 00:41:02;;;;;;;3.70;2.70;;;;;;;18.24;76.82;101562.75;107301;1246;63212;-70
2022/08/10 00:43:31;;;;;;;4.30;3.00;;;;;;;18.22;76.91;101561.25;107411;1247;59021;-70
2022/08/10 00:46:00;;;;;;;4.50;3.00;;;;;;;18.18;77.12;101558.55;107317;1247;57489;-69
2022/08/10 00:48:30;;;;;;;4.30;2.60;;;;;;;18.21;76.49;101554.63;107414;1247;63016;-68
2022/08/10 00:50:59;;;;;;;3.50;2.50;;;;;;;18.19;76.44;101553.23;107451;1246;72253;-67
2022/08/10 00:53:28;;;;;;;3.60;2.50;;;;;;;18.16;76.11;101552.94;107492;1248;59667;-70
2022/08/10 00:55:58;;;;;;;3.60;2.40;;;;;;;18.17;75.61;101555.48;107421;1247;62520;-72
2022/08/10 00:58:47;;;;;;;3.40;2.50;;;;;;;18.09;75.58;101554.85;107347;1247;62069;-68
2022/08/10 01:01:16;;;;;;;3.80;2.30;;;;;;;18.08;75.21;101551.06;107427;1247;60789;-71
2022/08/10 01:04:06;;;;;;;3.30;2.50;;;;;;;18.05;74.88;101550.15;107373;1247;63356;-68
2022/08/10 01:07:19;;;;;;;2.90;2.20;;;;;;;18.01;74.51;101547.42;107307;1247;61547;-70
2022/08/10 01:10:31;;;;;;;3.00;2.00;;;;;;;17.99;74.27;101543.08;107441;1248;59891;-69
2022/08/10 01:13:08;;;;;;;4.40;2.20;;;;;;;17.94;74.10;101541.89;107401;1247;63156;-70
2022/08/10 01:16:11;;;;;;;3.50;2.00;;;;;;;17.90;74.24;101548.64;107479;1246;58755;-71
2022/08/10 01:18:59;;;;;;;2.70;2.00;;;;;;;17.87;74.06;101548.05;107486;1247;58981;-72
2022/08/10 01:22:11;;;;;;;3.10;2.00;;;;;;;17.83;73.99;101549.59;107558;1247;72153;-69
2022/08/10 01:25:33;;;;;;;3.00;2.20;;;;;;;17.80;73.92;101547.59;107529;1247;61576;-71
2022/08/10 01:28:56;;;;;;;3.50;2.00;;;;;;;17.74;74.80;101554.16;107544;1248;71060;-72
2022/08/10 01:31:32;;;;;;;3.60;2.10;;;;;;;17.77;74.45;101553.00;107528;1248;62804;-72
2022/08/10 01:34:15;;;;;;;2.90;1.80;;;;;;;17.71;74.34;101552.27;107573;1248;59038;-70
2022/08/10 01:36:50;;;;;;;6.00;1.90;;;;;;;17.62;74.79;101548.83;107443;1247;61144;-71
2022/08/10 01:39:25;;;;;;;5.50;2.30;;;;;;;17.67;74.18;101552.98;107542;1247;63435;-72
2022/08/10 01:41:59;;;;;;;2.60;2.10;;;;;;;17.63;74.29;101552.63;107356;1248;70575;-73
2022/08/10 01:44:48;;;;;;;5.30;2.60;;;;;;;17.59;74.61;101552.93;107502;1248;71113;-72
2022/08/10 01:50:35;;;;;;;3.00;1.90;;;;;;;17.57;74.64;101552.46;107442;1246;63037;-71
2022/08/10 01:53:32;;;;;;;3.00;2.00;;;;;;;17.49;75.43;101552.80;107458;1247;63085;-71
2022/08/10 01:56:13;;;;;;;5.00;2.20;;;;;;;17.44;75.75;101548.27;107453;1247;74512;-71
2022/08/10 01:58:45;;;;;;;3.10;2.30;;;;;;;17.46;75.31;101546.47;107514;1247;72790;-71
2022/08/10 02:01:19;;;;;;;5.70;2.20;;;;;;;17.43;75.68;101540.28;107483;1247;71388;-73
2022/08/10 02:03:51;;;;;;;4.90;2.20;;;;;;;17.39;76.42;101538.90;107502;1247;74297;-72
2022/08/10 02:06:45;;;;;;;4.00;2.30;;;;;;;17.37;76.43;101539.06;107500;1248;59008;-70
2022/08/10 02:09:20;;;;;;;3.20;2.20;;;;;;;17.32;76.88;101538.46;107463;1248;61226;-70
2022/08/10 02:11:50;;;;;;;2.60;2.20;;;;;;;17.27;77.13;101538.88;107494;1247;73594;-66
2022/08/10 02:14:53;;;;;;;3.00;2.30;;;;;;;17.29;77.42;101543.09;107492;1248;71900;-70
2022/08/10 02:17:37;;;;;;;3.50;2.50;;;;;;;17.33;77.09;101541.72;107482;1247;71988;-70
2022/08/10 02:20:42;;;;;;;4.70;2.40;;;;;;;17.34;77.08;101544.95;107448;1247;63639;-69
2022/08/10 02:23:26;;;;;;;4.00;2.40;;;;;;;17.33;77.44;101545.44;107501;1247;59079;-69
2022/08/10 02:25:59;;;;;;;3.50;2.50;;;;;;;17.34;77.68;101541.98;107523;1247;58974;-72
2022/08/10 02:28:31;;;;;;;3.00;2.40;;;;;;;17.37;77.11;101543.98;107481;1247;73636;-69
2022/08/10 02:31:11;;;;;;;4.90;2.50;;;;;;;17.40;76.62;101542.28;107502;1247;62995;-72
2022/08/10 02:33:45;;;;;;;3.60;2.60;;;;;;;17.40;76.83;101538.81;107456;1247;59232;-68
2022/08/10 02:36:33;;;;;;;6.10;2.30;;;;;;;17.40;76.86;101539.98;107464;1248;73574;-68
2022/08/10 02:39:06;;;;;;;3.60;2.70;;;;;;;17.33;77.59;101537.09;107421;1247;62855;-71
2022/08/10 02:41:52;;;;;;;4.50;2.60;;;;;;;17.35;77.54;101538.18;107374;1247;61021;-72
2022/08/10 02:45:03;;;;;;;4.00;2.40;;;;;;;17.36;77.62;101540.42;107258;1247;73833;-69
2022/08/10 02:48:42;;;;;;;4.20;2.80;;;;;;;17.37;78.43;101543.83;107314;1248;72354;-69
2022/08/10 02:51:35;;;;;;;3.80;2.60;;;;;;;17.37;78.10;101545.02;106753;1254;71708;-68
2022/08/10 02:54:31;;;;;;;4.80;3.40;;;;;;;17.40;77.91;101542.45;107334;1247;64009;-70
2022/08/10 02:57:03;;;;;;;3.90;2.90;;;;;;;17.41;79.16;101547.70;107341;1247;58942;-68
2022/08/10 02:59:42;;;;;;;6.10;3.10;;;;;;;17.43;79.58;101548.23;107326;1247;59046;-69
2022/08/10 03:02:19;;;;;;;5.00;3.00;;;;;;;17.47;79.29;101546.98;107315;1247;62864;-65
2022/08/10 03:04:52;;;;;;;4.20;3.20;;;;;;;17.48;79.68;101551.27;107334;1246;72188;-67
2022/08/10 03:07:32;;;;;;;4.40;3.00;;;;;;;17.47;80.31;101546.57;107303;1247;59678;-70
2022/08/10 03:10:21;;;;;;;5.20;3.20;;;;;;;17.47;80.25;101545.52;107263;1247;64977;-70
2022/08/10 03:12:56;;;;;;;5.20;3.40;;;;;;;17.47;80.61;101544.09;107499;1246;63318;-71
2022/08/10 03:15:28;;;;;;;6.10;3.60;;;;;;;17.48;81.13;101543.31;107570;1248;59152;-70
2022/08/10 03:17:59;;;;;;;5.40;3.60;;;;;;;17.51;80.75;101539.23;107625;1248;62111;-70
2022/08/10 03:20:40;;;;;;;4.40;3.30;;;;;;;17.49;81.38;101543.31;107498;1247;72229;-70
2022/08/10 03:23:15;;;;;;;5.00;3.50;;;;;;;17.50;81.80;101544.45;107365;1247;68442;-70
2022/08/10 03:25:47;;;;;;;4.50;3.80;;;;;;;17.51;82.00;101547.17;107382;1248;74403;-69
2022/08/10 03:28:29;;;;;;;7.20;3.50;;;;;;;17.50;81.82;101547.05;107425;1247;59127;-69
2022/08/10 03:31:00;;;;;;;5.10;3.20;;;;;;;17.59;80.69;101545.01;107467;1247;60446;-71
2022/08/10 03:33:34;;;;;;;5.30;3.00;;;;;;;17.61;81.00;101545.90;107622;1247;63133;-72
2022/08/10 03:36:05;;;;;;;4.40;3.30;;;;;;;17.60;80.99;101545.27;107605;1247;71732;-72
2022/08/10 03:38:54;;;;;;;5.50;3.60;;;;;;;17.59;81.64;101550.49;107401;1247;70848;-71
2022/08/10 03:41:46;;;;;;;4.00;3.00;;;;;;;17.63;81.16;101551.19;107563;1247;63808;-71
2022/08/10 03:44:31;;;;;;;4.40;3.30;;;;;;;17.63;81.30;101551.16;107615;1247;63035;-70
2022/08/10 03:47:04;;;;;;;5.60;3.60;;;;;;;17.66;81.03;101550.42;107581;1248;59037;-77
2022/08/10 03:49:47;;;;;;;7.10;3.90;;;;;;;17.69;80.72;101553.15;107521;1247;73557;-71
2022/08/10 03:52:18;;;;;;;5.50;4.00;;;;;;;17.73;80.22;101553.14;107365;1247;71864;-71
2022/08/10 03:54:50;;;;;;;5.30;4.10;;;;;;;17.74;80.27;101556.19;107599;1247;60041;-72
2022/08/10 03:57:21;;;;;;;4.80;3.90;;;;;;;17.76;80.21;101550.74;107635;1247;62463;-71
2022/08/10 03:59:50;;;;;;;5.70;3.50;;;;;;;17.77;79.88;101550.49;107501;1247;62119;-70
2022/08/10 04:02:19;;;;;;;6.40;3.60;;;;;;;17.79;80.09;101553.89;107503;1247;61166;-71
2022/08/10 04:05:08;;;;;;;3.90;3.20;;;;;;;17.78;79.78;101552.88;107627;1247;73579;-72
2022/08/10 04:07:37;;;;;;;5.80;3.30;;;;;;;17.78;79.92;101554.16;107605;1247;72128;-72
2022/08/10 04:10:06;;;;;;;3.80;2.90;;;;;;;17.81;79.49;101550.33;107514;1247;60342;-70
2022/08/10 04:12:40;;;;;;;8.50;3.40;;;;;;;17.80;79.08;101548.33;107544;1246;63333;-71
2022/08/10 04:15:10;;;;;;;5.10;2.90;;;;;;;17.82;78.65;101550.95;107602;1247;59034;-72
2022/08/10 04:17:38;;;;;;;4.60;2.70;;;;;;;17.80;78.06;101544.91;107530;1247;61123;-71
2022/08/10 04:20:37;;;;;;;6.30;3.20;;;;;;;17.80;77.83;101551.48;107500;1248;71885;-71
2022/08/10 04:23:12;;;;;;;6.60;3.00;;;;;;;17.85;77.48;101549.80;107617;1247;60808;-71
2022/08/10 04:25:41;;;;;;;4.60;2.70;;;;;;;17.90;76.70;101551.08;107553;1247;69755;-70
2022/08/10 04:28:11;;;;;;;3.50;2.50;;;;;;;17.95;76.22;101547.95;107472;1247;75771;-73
2022/08/10 04:30:41;;;;;;;3.40;2.40;;;;;;;17.97;75.09;101546.44;107575;1247;59136;-71
2022/08/10 04:33:14;;;;;;;4.10;2.30;;;;;;;17.90;74.73;101550.36;107641;1247;57589;-73
2022/08/10 04:35:45;;;;;;;4.70;2.20;;;;;;;17.94;74.27;101544.77;107484;1247;62030;-71
2022/08/10 04:38:16;;;;;;;3.20;2.20;;;;;;;17.96;73.99;101543.52;107652;1247;61527;-71
2022/08/10 04:40:46;;;;;;;2.50;2.00;;;;;;;18.00;73.81;101544.23;107613;1246;70693;-69
2022/08/10 04:43:15;;;;;;;2.70;2.10;;;;;;;17.99;73.35;101545.31;107429;1248;73930;-71
2022/08/10 04:45:44;;;;;;;4.00;2.00;;;;;;;18.07;73.17;101548.27;107505;1247;58999;-68
2022/08/10 04:48:23;;;;;;;4.10;2.20;;;;;;;18.12;72.64;101549.06;107459;1247;59058;-69
2022/08/10 04:51:17;;;;;;;4.00;2.00;;;;;;;18.11;72.12;101546.33;107566;1246;73950;-71
2022/08/10 04:53:50;;;;;;;5.50;2.20;;;;;;;18.18;71.80;101548.40;107570;1247;64787;-70
2022/08/10 04:56:38;;;;;;;3.50;1.90;;;;;;;18.26;71.61;101544.29;107587;1247;71398;-69
2022/08/10 04:59:10;;;;;;;3.10;1.90;;;;;;;18.20;71.41;101545.33;107590;1247;62865;-71
2022/08/10 05:01:40;;;;;;;2.30;1.70;;;;;;;18.32;71.10;101546.02;107475;1247;62011;-72
2022/08/10 05:04:28;;;;;;;4.40;2.20;;;;;;;18.43;70.49;101548.76;107706;1246;61685;-70
2022/08/10 05:07:09;;;;;;;2.70;2.10;;;;;;;18.41;70.12;101536.90;107704;1247;62729;-76
2022/08/10 05:09:49;;;;;;;3.50;2.10;;;;;;;18.41;70.23;101538.63;107611;1247;61850;-76
2022/08/10 05:12:36;;;;;;;4.40;2.10;;;;;;;18.41;70.15;101538.69;107641;1246;59235;-76
2022/08/10 05:15:12;;;;;;;3.50;1.90;;;;;;;18.50;69.83;101534.80;107649;1247;75411;-78
2022/08/10 05:17:41;;;;;;;6.10;2.30;;;;;;;18.67;69.37;101533.81;107704;1245;60981;-73
2022/08/10 05:20:30;;;;;;;4.20;2.30;;;;;;;18.71;68.95;101532.92;107700;1246;59017;-70
2022/08/10 05:22:59;;;;;;;4.80;2.30;;;;;;;18.83;68.71;101534.08;107782;1247;62550;-71
2022/08/10 05:25:28;;;;;;;5.00;2.20;;;;;;;18.87;68.45;101538.79;107764;1247;60910;-74
2022/08/10 05:28:00;;;;;;;3.10;2.30;;;;;;;18.87;68.46;101537.27;107648;1246;68530;-73
2022/08/10 05:30:34;;;;;;;2.70;2.00;;;;;;;18.87;68.21;101543.23;107623;1246;73964;-72
2022/08/10 05:33:02;;;;;;;3.20;2.10;;;;;;;19.02;67.25;101542.00;107606;1246;61095;-72
2022/08/10 05:35:37;;;;;;;4.50;2.00;;;;;;;19.09;67.01;101543.58;107580;1246;58559;-72
2022/08/10 05:38:28;;;;;;;4.10;2.10;;;;;;;19.17;66.63;101543.36;107459;1246;74402;-71
2022/08/10 05:40:57;;;;;;;3.70;1.90;;;;;;;19.15;66.07;101543.85;107549;1247;72616;-72
2022/08/10 05:43:27;;;;;;;2.40;1.90;;;;;;;19.14;65.86;101551.07;107507;1246;69689;-71
2022/08/10 05:45:56;;;;;;;2.60;1.80;;;;;;;19.19;65.86;101552.17;107623;1246;72543;-72
2022/08/10 05:48:44;;;;;;;2.40;1.80;;;;;;;19.21;65.46;101552.87;107816;1247;59099;-73
2022/08/10 05:51:29;;;;;;;4.20;1.90;;;;;;;19.32;64.87;101550.09;107752;1247;59397;-73
2022/08/10 05:53:59;;;;;;;6.00;1.90;;;;;;;19.33;64.77;101556.69;107707;1246;63039;-74
2022/08/10 05:56:37;;;;;;;4.70;2.00;;;;;;;19.45;64.30;101553.41;107873;1246;71826;-72
2022/08/10 05:59:32;;;;;;;3.80;1.90;;;;;;;19.37;64.43;101556.60;107909;1246;71396;-73
2022/08/10 06:02:31;;;;;;;3.40;2.10;;;;;;;19.45;64.56;101552.89;107901;1247;64235;-73
2022/08/10 06:05:33;;;;;;;2.50;1.60;;;;;;;19.52;64.28;101550.94;107976;1247;58970;-72
2022/08/10 06:08:18;;;;;;;2.40;1.90;;;;;;;19.51;64.13;101558.25;107807;1247;60387;-74
2022/08/10 06:10:48;;;;;;;3.40;1.70;;;;;;;19.49;63.94;101567.10;107515;1247;74505;-72
2022/08/10 06:16:42;;;;;;;5.30;2.10;;;;;;;19.36;64.92;101560.77;107501;1246;70453;-72
2022/08/10 06:19:12;;;;;;;3.60;2.00;;;;;;;19.36;65.12;101562.91;107506;1246;73444;-73
2022/08/10 06:21:43;;;;;;;3.30;1.90;;;;;;;19.27;65.51;101565.58;107499;1246;61222;-74
2022/08/10 06:24:32;;;;;;;4.30;2.50;;;;;;;19.17;66.56;101571.06;107468;1246;61062;-71
2022/08/10 06:27:03;;;;;;;3.10;2.10;;;;;;;19.10;67.40;101572.31;107466;1247;63451;-72
2022/08/10 06:29:35;;;;;;;5.50;2.40;;;;;;;19.02;68.21;101576.72;107617;1246;72427;-73
2022/08/10 06:32:07;;;;;;;4.10;2.00;;;;;;;19.05;68.19;101578.38;107671;1246;60511;-71
2022/08/10 06:34:46;;;;;;;5.60;2.30;;;;;;;19.07;68.09;101573.44;107462;1247;63333;-73
2022/08/10 06:37:19;;;;;;;3.80;2.30;;;;;;;18.98;68.84;101577.32;107480;1246;61025;-72
2022/08/10 06:39:48;;;;;;;8.20;2.60;;;;;;;18.95;69.25;101576.13;107642;1247;57470;-73
2022/08/10 06:42:17;;;;;;;2.90;2.30;;;;;;;19.01;69.54;101577.87;107621;1247;62176;-73
2022/08/10 06:45:12;;;;;;;4.50;2.70;;;;;;;19.12;69.17;101587.84;107630;1246;70995;-71
2022/08/10 06:48:13;;;;;;;5.00;2.30;;;;;;;19.01;70.33;101588.52;107575;1246;71061;-73
2022/08/10 06:50:51;;;;;;;4.60;2.90;;;;;;;19.06;70.45;101590.20;107654;1246;63414;-70
2022/08/10 06:53:37;;;;;;;3.50;2.20;;;;;;;19.12;70.30;101591.72;107503;1246;57485;-72
2022/08/10 06:56:30;;;;;;;3.00;2.30;;;;;;;19.13;70.35;101596.39;107615;1246;58887;-72
2022/08/10 06:59:21;;;;;;;5.40;2.40;;;;;;;19.13;70.62;101604.11;107555;1246;74592;-71
2022/08/10 07:01:58;;;;;;;5.30;2.60;;;;;;;19.15;70.56;101599.14;107668;1246;62016;-73
2022/08/10 07:04:41;;;;;;;5.30;2.00;;;;;;;19.18;70.68;101600.14;107438;1247;60038;-72
2022/08/10 07:07:17;;;;;;;4.50;2.40;;;;;;;19.23;70.00;101602.78;107480;1246;73141;-73
2022/08/10 07:09:48;;;;;;;5.50;2.30;;;;;;;19.09;70.80;101603.09;107607;1247;57494;-70
2022/08/10 07:12:20;;;;;;;7.20;2.20;;;;;;;19.09;70.69;101597.43;107458;1246;61920;-72
2022/08/10 07:14:50;;;;;;;4.20;2.30;;;;;;;19.21;70.36;101604.61;107513;1246;63825;-72
2022/08/10 07:17:23;;;;;;;6.20;2.80;;;;;;;19.23;69.78;101603.35;107668;1247;62299;-74
2022/08/10 07:19:55;;;;;;;;;;;;;;;19.15;70.25;101609.77;107530;1247;60011;-70
2022/08/10 07:22:28;;;;;;;4.60;2.30;;;;;;;19.12;70.41;101599.96;107484;1245;63160;-69
2022/08/10 07:25:24;;;;;;;4.60;2.10;;;;;;;19.01;70.87;101599.98;107465;1247;59015;-74
2022/08/10 07:27:56;;;;;;;3.90;1.90;;;;;;;18.99;70.82;101592.70;107806;1246;61120;-70
2022/08/10 07:30:36;;;;;;;3.10;2.00;;;;;;;18.86;71.83;101598.01;107669;1246;71700;-71
2022/08/10 07:33:06;;;;;;;4.00;2.10;;;;;;;18.83;72.03;101592.30;107571;1246;72413;-73
2022/08/10 07:35:38;;;;;;;5.20;2.20;;;;;;;18.79;72.52;101597.57;107592;1246;70217;-69
2022/08/10 07:38:19;;;;;;;3.90;2.10;;;;;;;18.69;72.79;101599.29;107561;1246;64085;-79
2022/08/10 07:40:50;;;;;;;4.00;2.80;;;;;;;18.57;73.51;101602.13;107376;1246;62174;-72
2022/08/10 07:43:25;;;;;;;4.10;2.00;;;;;;;18.54;73.68;101602.41;107519;1247;58922;-70
2022/08/10 07:45:56;;;;;;;4.80;2.50;;;;;;;18.36;74.54;101604.37;107591;1246;62977;-71
2022/08/10 07:48:28;;;;;;;5.30;2.20;;;;;;;18.32;74.41;101609.74;107432;1246;71288;-71
2022/08/10 07:51:01;;;;;;;3.50;2.50;;;;;;;18.19;75.09;101615.48;107428;1246;59649;-71
2022/08/10 07:53:37;;;;;;;4.30;2.70;;;;;;;18.02;76.10;101609.41;107452;1247;73126;-70
2022/08/10 07:56:07;;;;;;;3.00;2.10;;;;;;;17.93;76.52;101614.05;107379;1247;63355;-71
2022/08/10 07:59:07;;;;;;;5.40;2.30;;;;;;;17.85;76.68;101614.08;107472;1247;58906;-72
2022/08/10 08:01:49;;;;;;;3.90;2.70;;;;;;;17.85;77.06;101614.13;107575;1246;73563;-71
2022/08/10 08:04:21;;;;;;;8.60;2.80;;;;;;;17.83;77.84;101611.50;107640;1246;72874;-72
2022/08/10 08:06:52;;;;;;;5.20;2.70;;;;;;;17.85;77.98;101604.24;107612;1246;60646;-73
2022/08/10 08:09:23;;;;;;;6.50;2.80;;;;;;;17.89;77.58;101607.05;107724;1246;64922;-71
2022/08/10 08:11:54;;;;;;;4.10;2.60;;;;;;;17.82;78.08;101608.25;107511;1247;57481;-74
2022/08/10 08:14:31;;;;;;;4.00;3.00;;;;;;;17.74;78.61;101606.42;107553;1247;58437;-71
2022/08/10 08:17:00;;;;;;;4.60;2.90;;;;;;;17.66;79.42;101608.30;107654;1247;62213;-75
2022/08/10 08:19:30;;;;;;;4.40;3.10;;;;;;;17.57;79.70;101609.09;107702;1246;61695;-74
2022/08/10 08:22:16;;;;;;;6.30;3.30;;;;;;;17.51;80.71;101608.58;107484;1247;60115;-76
2022/08/10 08:25:06;;;;;;;4.70;3.10;;;;;;;17.43;80.67;101602.08;107556;1245;73346;-73
2022/08/10 08:27:44;;;;;;;4.40;3.00;;;;;;;17.26;82.04;101608.15;107615;1246;63786;-77
2022/08/10 08:30:16;;;;;;;5.70;3.00;;;;;;;17.27;81.53;101604.77;107542;1246;59144;-72
2022/08/10 08:32:58;;;;;;;4.60;2.80;;;;;;;17.20;82.47;101602.84;107537;1246;62989;-73
2022/08/10 08:35:27;;;;;;;3.50;2.90;;;;;;;17.18;82.84;101604.09;107524;1246;72210;-72
2022/08/10 08:37:58;;;;;;;4.90;3.40;;;;;;;17.26;82.28;101603.27;107498;1246;60579;-70
2022/08/10 08:41:02;;;;;;;7.60;3.20;;;;;;;17.21;82.86;101603.98;107606;1246;74170;-70
2022/08/10 08:44:03;;;;;;;4.50;2.90;;;;;;;17.23;82.97;101606.98;107586;1246;59046;-72
2022/08/10 08:47:01;;;;;;;5.70;3.40;;;;;;;17.24;82.70;101607.08;107351;1246;61182;-72
2022/08/10 08:50:19;;;;;;;5.60;3.60;;;;;;;17.10;83.05;101594.55;107558;1246;72823;-72
2022/08/10 08:53:25;;;;;;;4.40;3.30;;;;;;;17.18;82.55;101609.38;107580;1246;72134;-73
2022/08/10 08:56:33;;;;;;;4.30;3.20;;;;;;;17.16;82.66;101605.33;107567;1246;69532;-72
2022/08/10 08:59:36;;;;;;;4.30;3.20;;;;;;;17.16;82.94;101609.39;107608;1246;71688;-71
2022/08/10 09:02:42;;;;;;;8.50;3.30;;;;;;;17.12;83.49;101610.81;107674;1246;60979;-73
2022/08/10 09:05:54;;;;;;;3.60;3.10;;;;;;;17.11;83.28;101610.64;107696;1246;60721;-71
2022/08/10 09:09:25;;;;;;;5.60;3.20;;;;;;;17.08;83.32;101608.85;107578;1246;74601;-75
2022/08/10 09:12:54;;;;;;;7.60;3.30;;;;;;;17.12;83.38;101608.67;107633;1246;73541;-73
2022/08/10 09:15:36;;;;;;;4.40;2.90;;;;;;;17.15;83.12;101608.07;107358;1246;60645;-71
2022/08/10 09:18:46;;;;;;;4.50;3.00;;;;;;;17.22;82.72;101609.16;107437;1246;73965;-73
2022/08/10 09:21:47;;;;;;;3.40;2.50;;;;;;;17.33;81.59;101609.65;107478;1246;58334;-77
2022/08/10 09:24:45;;;;;;;4.90;2.50;;;;;;;17.38;81.93;101606.97;107444;1246;59006;-74
2022/08/10 09:27:32;;;;;;;3.90;2.50;;;;;;;17.52;81.41;101604.67;107633;1246;74656;-73
2022/08/10 09:30:09;;;;;;;3.80;2.70;;;;;;;17.58;81.04;101606.77;107454;1246;64186;-74
2022/08/10 09:32:51;;;;;;;3.70;2.70;;;;;;;17.67;80.49;101609.83;107321;1249;68771;-73
2022/08/10 09:36:11;;;;;;;4.10;2.60;;;;;;;17.73;80.13;101610.20;107185;1250;64137;-72
2022/08/10 09:39:25;;;;;;;5.20;2.70;;;;;;;17.86;80.24;101616.71;107021;1250;63044;-74
2022/08/10 09:42:35;;;;;;;9.90;3.00;;;;;;;17.92;80.05;101615.56;107254;1249;58279;-72
2022/08/10 09:45:25;;;;;;;6.20;3.30;;;;;;;18.03;79.98;101609.98;107202;1251;63908;-74
2022/08/10 09:48:20;;;;;;;10.80;3.50;;;;;;;18.12;79.44;101607.07;107194;1249;71886;-72
2022/08/10 09:51:43;;;;;;;6.60;2.80;;;;;;;18.24;79.10;101610.41;107273;1250;71132;-73
2022/08/10 09:54:39;;;;;;;3.90;2.40;;;;;;;18.21;78.68;101612.25;107415;1249;73479;-72
2022/08/10 09:57:33;;;;;;;4.40;2.60;;;;;;;18.31;78.54;101607.66;107340;1246;59251;-72
2022/08/10 10:00:38;;;;;;;4.90;2.50;;;;;;;18.40;77.97;101595.17;107578;1245;57559;-74
2022/08/10 10:03:29;;;;;;;3.50;2.70;;;;;;;18.49;77.21;101604.02;107649;1246;62096;-74
2022/08/10 10:06:12;;;;;;;4.70;2.60;;;;;;;18.35;78.78;101600.23;107556;1246;72301;-73
2022/08/10 10:09:05;;;;;;;4.00;2.80;;;;;;;18.55;77.45;101599.63;107544;1246;60821;-75
2022/08/10 10:11:54;;;;;;;5.10;2.90;;;;;;;18.60;77.47;101603.83;107600;1246;73993;-75
2022/08/10 10:18:02;;;;;;;4.30;2.80;;;;;;;18.69;76.86;101603.64;107711;1246;60782;-73
2022/08/10 10:20:43;;;;;;;6.40;3.10;;;;;;;18.72;76.97;101604.41;107620;1247;72819;-74
2022/08/10 10:23:34;;;;;;;7.20;2.90;;;;;;;18.81;76.66;101608.88;107673;1246;72661;-72
2022/08/10 10:26:43;;;;;;;4.70;2.90;;;;;;;18.79;76.47;101607.65;107724;1246;71171;-73
2022/08/10 10:29:28;;;;;;;5.80;2.90;;;;;;;18.89;76.04;101610.09;107751;1246;72265;-73
2022/08/10 10:32:52;;;;;;;6.20;3.00;;;;;;;19.02;76.08;101600.91;107670;1246;63631;-74
2022/08/10 10:36:03;;;;;;;3.10;2.40;;;;;;;19.14;76.01;101600.12;107471;1246;57690;-71
2022/08/10 10:38:38;;;;;;;3.10;2.50;;;;;;;19.16;74.96;101595.36;107371;1246;74039;-69
2022/08/10 10:41:21;;;;;;;4.00;2.50;;;;;;;19.25;74.44;101594.36;107441;1246;62178;-71
2022/08/10 10:44:07;;;;;;;2.90;2.40;;;;;;;19.34;73.97;101589.98;107714;1246;59642;-71
2022/08/10 10:46:55;;;;;;;3.90;2.70;;;;;;;19.32;74.25;101588.23;107470;1246;73769;-72
2022/08/10 10:49:48;;;;;;;3.70;2.80;;;;;;;19.36;73.81;101590.43;107524;1246;59020;-79
2022/08/10 10:52:50;;;;;;;5.70;3.20;;;;;;;19.39;73.47;101591.09;107848;1247;58892;-79
2022/08/10 10:55:46;;;;;;;7.50;2.90;;;;;;;19.48;73.65;101589.31;107933;1246;72294;-81
2022/08/10 10:59:25;;;;;;;7.10;3.30;;;;;;;19.35;74.00;101588.92;107759;1246;62204;-80
2022/08/10 11:02:48;;;;;;;6.40;2.80;;;;;;;19.63;72.93;101583.16;108467;1247;69560;-79
2022/08/10 11:05:42;;;;;;;4.20;2.40;;;;;;;19.81;71.60;101584.65;107856;1246;64082;-83
2022/08/10 11:08:25;;;;;;;3.30;2.10;;;;;;;19.84;70.99;101582.27;107729;1246;62868;-81
2022/08/10 11:11:15;;;;;;;3.60;2.20;;;;;;;19.92;70.11;101580.32;108096;1246;61457;-82
2022/08/10 11:14:31;;;;;;;2.80;2.30;;;;;;;19.59;70.13;101552.58;108103;1245;63376;-81
2022/08/10 11:17:24;;;;;;;3.60;2.60;;;;;;;19.84;69.91;101577.02;107892;1247;71462;-83
2022/08/10 11:20:11;;;;;;;3.40;1.90;;;;;;;20.01;69.84;101577.79;108191;1246;60233;-81
2022/08/10 11:23:04;;;;;;;3.30;2.20;;;;;;;20.02;69.32;101576.99;107712;1246;73010;-81
2022/08/10 11:25:41;;;;;;;3.80;2.40;;;;;;;19.78;70.10;101574.11;107793;1245;63502;-83
2022/08/10 11:28:45;;;;;;;5.20;2.30;;;;;;;19.87;70.29;101572.09;106774;1247;1967405;-74
2022/08/10 11:31:14;;;;;;;6.00;2.50;;;;;;;19.79;70.76;101573.02;107693;1247;62936;-81
2022/08/10 11:34:01;;;;;;;4.10;2.20;;;;;;;19.66;71.50;101571.80;107798;1246;60911;-78
2022/08/10 11:37:14;;;;;;;3.90;2.60;;;;;;;19.40;72.85;101570.70;107483;1246;69986;-79
2022/08/10 11:40:04;;;;;;;6.60;2.90;;;;;;;19.29;73.37;101566.07;107697;1246;66262;-84
2022/08/10 11:42:36;;;;;;;7.30;3.40;;;;;;;19.22;74.03;101565.48;107891;1245;63560;-84
2022/08/10 11:45:24;;;;;;;7.10;4.10;;;;;;;19.24;74.88;101561.98;107848;1246;61262;-82
2022/08/10 11:48:03;;;;;;;16.90;6.20;;;;;;;19.30;74.20;101562.02;107751;1246;73532;-76
2022/08/10 11:50:45;;;;;;;10.60;5.40;;;;;;;19.29;74.83;101561.58;107411;1246;61609;-75
2022/08/10 11:53:35;;;;;;;10.30;5.70;;;;;;;19.30;75.32;101554.80;107632;1246;60018;-79
2022/08/10 11:56:11;;;;;;;9.20;5.20;;;;;;;19.39;75.05;101549.57;107606;1246;73690;-77
2022/08/10 12:01:47;;;;;;;7.20;4.40;;;;;;;19.47;74.46;101551.21;107673;1246;58893;-78
2022/08/10 12:04:20;;;;;;;9.10;4.40;;;;;;;19.47;75.23;101550.85;107843;1246;72472;-77
2022/08/10 12:06:50;;;;;;;7.50;4.80;;;;;;;19.38;74.37;101549.09;107643;1246;72843;-77
2022/08/10 12:09:26;;;;;;;9.00;4.90;;;;;;;19.46;74.51;101548.52;107657;1246;59442;-73
2022/08/10 12:12:16;;;;;;;8.50;5.10;;;;;;;19.57;74.19;101546.91;107654;1246;73349;-73
2022/08/10 12:15:10;;;;;;;8.80;4.50;;;;;;;19.67;73.76;101545.50;107652;1246;58971;-72
2022/08/10 12:17:50;;;;;;;6.70;3.50;;;;;;;19.68;73.15;101543.56;107809;1246;60651;-73
2022/08/10 12:20:34;;;;;;;5.00;2.90;;;;;;;19.67;73.23;101537.88;107752;1246;64330;-73
2022/08/10 12:23:52;;;;;;;3.40;2.90;;;;;;;19.62;72.86;101537.63;107513;1246;60897;-72
2022/08/10 12:26:54;;;;;;;4.70;3.10;;;;;;;19.57;73.32;101538.05;107651;1246;59249;-70
2022/08/10 12:29:45;;;;;;;4.40;2.70;;;;;;;19.58;73.86;101536.59;107588;1245;63880;-71
2022/08/10 12:32:21;;;;;;;3.90;2.60;;;;;;;19.58;72.99;101534.81;107483;1246;62070;-65
2022/08/10 12:35:21;;;;;;;9.80;3.60;;;;;;;19.51;73.24;101532.09;107618;1246;60333;-66
2022/08/10 12:38:23;;;;;;;5.70;3.20;;;;;;;19.48;74.03;101532.98;107572;1246;74606;-69
2022/08/10 12:41:12;;;;;;;5.00;3.00;;;;;;;19.47;74.66;101534.35;107806;1246;61019;-66
2022/08/10 12:44:05;;;;;;;5.10;3.00;;;;;;;19.51;74.10;101531.65;107231;1247;60024;-69
2022/08/10 12:46:51;;;;;;;5.60;3.00;;;;;;;19.51;74.26;101527.58;109869;1246;63252;-69